createdAt,value
2023-02-16T00:00:03.444Z,12.46
2023-02-16T00:00:13.457Z,12.28
2023-02-16T00:00:23.473Z,12.36
2023-02-16T00:00:33.509Z,12.43
2023-02-16T00:00:43.488Z,11.95
2023-02-16T00:00:53.496Z,11.18
2023-02-16T00:01:03.868Z,10.83
2023-02-16T00:01:13.519Z,11.32
2023-02-16T00:01:23.514Z,11.99
2023-02-16T00:01:33.518Z,11.73
2023-02-16T00:01:43.520Z,12.09
2023-02-16T00:01:53.517Z,12.75
2023-02-16T00:02:03.544Z,12.95
2023-02-16T00:02:13.536Z,12.57
2023-02-16T00:02:23.548Z,12.31
2023-02-16T00:02:33.567Z,12.37
2023-02-16T00:02:43.638Z,12.21
2023-02-16T00:02:53.525Z,12.29
2023-02-16T00:03:03.532Z,12.49
2023-02-16T00:03:13.616Z,12.38
2023-02-16T00:03:23.540Z,12.32
2023-02-16T00:03:33.544Z,12.19
2023-02-16T00:03:43.547Z,12.25
2023-02-16T00:03:53.529Z,12.29
2023-02-16T00:04:03.496Z,12.40
2023-02-16T00:04:13.509Z,12.56
2023-02-16T00:04:23.513Z,12.91
2023-02-16T00:04:33.526Z,12.79
2023-02-16T00:04:43.521Z,12.42
2023-02-16T00:04:53.486Z,12.57
2023-02-16T00:05:03.552Z,12.13
2023-02-16T00:05:13.511Z,11.67
2023-02-16T00:05:23.531Z,11.33
2023-02-16T00:05:33.538Z,11.53
2023-02-16T00:05:43.534Z,11.53
2023-02-16T00:05:53.538Z,11.56
2023-02-16T00:06:03.598Z,12.19
2023-02-16T00:06:13.588Z,12.48
2023-02-16T00:06:23.596Z,11.82
2023-02-16T00:06:33.589Z,11.67
2023-02-16T00:06:43.608Z,11.42
2023-02-16T00:06:53.593Z,11.62
2023-02-16T00:07:03.614Z,12.31
2023-02-16T00:07:13.609Z,12.53
2023-02-16T00:07:23.625Z,12.16
2023-02-16T00:07:33.661Z,12.48
2023-02-16T00:07:43.638Z,12.81
2023-02-16T00:07:53.665Z,12.63
2023-02-16T00:08:03.694Z,12.39
2023-02-16T00:08:13.674Z,12.75
2023-02-16T00:08:23.677Z,12.84
2023-02-16T00:08:33.698Z,12.83
2023-02-16T00:08:43.715Z,12.72
2023-02-16T00:08:53.697Z,12.46
2023-02-16T00:09:03.722Z,12.67
2023-02-16T00:09:13.713Z,12.22
2023-02-16T00:09:23.727Z,12.63
2023-02-16T00:09:33.762Z,12.60
2023-02-16T00:09:43.750Z,12.41
2023-02-16T00:09:53.754Z,12.33
2023-02-16T00:10:03.854Z,12.27
2023-02-16T00:10:13.782Z,12.64
2023-02-16T00:10:23.790Z,12.69
2023-02-16T00:10:33.798Z,12.61
2023-02-16T00:10:43.806Z,12.52
2023-02-16T00:10:53.797Z,12.40
2023-02-16T00:11:04.096Z,12.29
2023-02-16T00:11:13.806Z,12.02
2023-02-16T00:11:23.810Z,12.03
2023-02-16T00:11:33.816Z,12.09
2023-02-16T00:11:43.815Z,12.07
2023-02-16T00:11:53.824Z,11.57
2023-02-16T00:12:03.833Z,11.58
2023-02-16T00:12:13.828Z,11.32
2023-02-16T00:12:23.818Z,12.00
2023-02-16T00:12:33.823Z,11.91
2023-02-16T00:12:43.818Z,11.98
2023-02-16T00:12:53.817Z,11.74
2023-02-16T00:13:03.823Z,11.49
2023-02-16T00:13:13.810Z,12.20
2023-02-16T00:13:23.818Z,12.04
2023-02-16T00:13:33.813Z,12.12
2023-02-16T00:13:43.811Z,12.17
2023-02-16T00:13:53.800Z,12.02
2023-02-16T00:14:03.814Z,11.71
2023-02-16T00:14:13.810Z,11.44
2023-02-16T00:14:23.813Z,11.60
2023-02-16T00:14:33.810Z,11.36
2023-02-16T00:14:43.811Z,11.24
2023-02-16T00:14:53.788Z,10.84
2023-02-16T00:15:03.805Z,11.94
2023-02-16T00:15:13.897Z,12.52
2023-02-16T00:15:23.808Z,12.36
2023-02-16T00:15:33.858Z,12.53
2023-02-16T00:15:43.837Z,12.68
2023-02-16T00:15:53.820Z,12.07
2023-02-16T00:16:03.816Z,12.25
2023-02-16T00:16:13.833Z,12.10
2023-02-16T00:16:23.925Z,11.66
2023-02-16T00:16:33.789Z,10.91
2023-02-16T00:16:43.784Z,11.22
2023-02-16T00:16:53.822Z,11.72
2023-02-16T00:17:03.801Z,12.12
2023-02-16T00:17:13.787Z,12.28
2023-02-16T00:17:23.795Z,11.78
2023-02-16T00:17:33.832Z,11.55
2023-02-16T00:17:43.824Z,11.22
2023-02-16T00:17:53.824Z,11.79
2023-02-16T00:18:03.837Z,12.13
2023-02-16T00:18:13.855Z,12.16
2023-02-16T00:18:23.835Z,12.08
2023-02-16T00:18:33.896Z,11.97
2023-02-16T00:18:43.881Z,11.38
2023-02-16T00:18:53.886Z,11.70
2023-02-16T00:19:03.899Z,11.27
2023-02-16T00:19:13.904Z,11.60
2023-02-16T00:19:23.908Z,11.80
2023-02-16T00:19:33.928Z,11.95
2023-02-16T00:19:43.898Z,11.58
2023-02-16T00:19:53.923Z,11.50
2023-02-16T00:20:03.970Z,11.79
2023-02-16T00:20:14.040Z,11.38
2023-02-16T00:20:23.944Z,11.58
2023-02-16T00:20:33.986Z,11.82
2023-02-16T00:20:43.977Z,12.55
2023-02-16T00:20:53.979Z,12.35
2023-02-16T00:21:04.219Z,11.88
2023-02-16T00:21:14.006Z,12.32
2023-02-16T00:21:23.989Z,12.49
2023-02-16T00:21:34.008Z,12.38
2023-02-16T00:21:43.994Z,11.23
2023-02-16T00:21:54.001Z,11.69
2023-02-16T00:22:03.991Z,11.90
2023-02-16T00:22:14.022Z,11.87
2023-02-16T00:22:23.988Z,12.59
2023-02-16T00:22:34.011Z,12.90
2023-02-16T00:22:43.986Z,13.03
2023-02-16T00:22:53.995Z,12.64
2023-02-16T00:23:03.993Z,11.99
2023-02-16T00:23:14.009Z,11.34
2023-02-16T00:23:23.998Z,11.45
2023-02-16T00:23:34.006Z,11.57
2023-02-16T00:23:43.995Z,12.15
2023-02-16T00:23:53.994Z,12.36
2023-02-16T00:24:04.020Z,12.99
2023-02-16T00:24:13.989Z,12.43
2023-02-16T00:24:23.982Z,12.01
2023-02-16T00:24:33.989Z,11.84
2023-02-16T00:24:43.973Z,12.07
2023-02-16T00:24:53.980Z,12.85
2023-02-16T00:25:03.999Z,13.58
2023-02-16T00:25:13.980Z,13.51
2023-02-16T00:25:24.105Z,12.52
2023-02-16T00:25:33.986Z,12.51
2023-02-16T00:25:43.994Z,12.91
2023-02-16T00:25:53.974Z,12.84
2023-02-16T00:26:03.985Z,11.88
2023-02-16T00:26:13.988Z,11.72
2023-02-16T00:26:23.971Z,11.73
2023-02-16T00:26:33.982Z,11.70
2023-02-16T00:26:43.974Z,11.97
2023-02-16T00:26:53.983Z,12.56
2023-02-16T00:27:03.993Z,12.56
2023-02-16T00:27:14.025Z,11.95
2023-02-16T00:27:23.997Z,11.67
2023-02-16T00:27:34.009Z,11.63
2023-02-16T00:27:44.016Z,11.31
2023-02-16T00:27:54.031Z,11.63
2023-02-16T00:28:04.058Z,12.04
2023-02-16T00:28:14.038Z,11.21
2023-02-16T00:28:24.037Z,11.26
2023-02-16T00:28:34.087Z,11.01
2023-02-16T00:28:44.087Z,10.91
2023-02-16T00:28:54.106Z,10.97
2023-02-16T00:29:04.108Z,10.26
2023-02-16T00:29:14.095Z,10.88
2023-02-16T00:29:24.096Z,11.30
2023-02-16T00:29:34.120Z,11.13
2023-02-16T00:29:45.857Z,11.71
2023-02-16T00:29:54.164Z,11.80
2023-02-16T00:30:04.194Z,11.25
2023-02-16T00:30:14.146Z,11.21
2023-02-16T00:30:24.195Z,11.32
2023-02-16T00:30:34.274Z,11.67
2023-02-16T00:30:44.166Z,11.90
2023-02-16T00:30:54.166Z,11.91
2023-02-16T00:31:04.442Z,11.58
2023-02-16T00:31:14.354Z,11.81
2023-02-16T00:31:24.485Z,12.09
2023-02-16T00:31:34.410Z,12.78
2023-02-16T00:31:44.374Z,12.75
2023-02-16T00:31:54.493Z,12.76
2023-02-16T00:32:04.574Z,12.31
2023-02-16T00:32:14.469Z,12.20
2023-02-16T00:32:24.404Z,11.95
2023-02-16T00:32:34.332Z,12.42
2023-02-16T00:32:44.337Z,12.31
2023-02-16T00:32:54.318Z,12.09
2023-02-16T00:33:04.336Z,11.78
2023-02-16T00:33:14.357Z,12.11
2023-02-16T00:33:24.375Z,12.45
2023-02-16T00:33:34.358Z,12.07
2023-02-16T00:33:44.386Z,11.87
2023-02-16T00:33:54.396Z,11.87
2023-02-16T00:34:04.383Z,11.75
2023-02-16T00:34:14.406Z,12.08
2023-02-16T00:34:24.395Z,11.99
2023-02-16T00:34:34.399Z,11.75
2023-02-16T00:34:44.438Z,11.31
2023-02-16T00:34:54.425Z,11.29
2023-02-16T00:35:04.454Z,11.46
2023-02-16T00:35:14.461Z,11.66
2023-02-16T00:35:24.470Z,11.65
2023-02-16T00:35:34.509Z,11.51
2023-02-16T00:35:44.489Z,11.93
2023-02-16T00:35:54.496Z,11.96
2023-02-16T00:36:04.485Z,11.97
2023-02-16T00:36:14.504Z,11.91
2023-02-16T00:36:24.506Z,12.26
2023-02-16T00:36:34.498Z,11.69
2023-02-16T00:36:44.521Z,11.20
2023-02-16T00:36:54.543Z,10.77
2023-02-16T00:37:04.509Z,11.03
2023-02-16T00:37:14.565Z,11.33
2023-02-16T00:37:24.565Z,11.89
2023-02-16T00:37:34.567Z,12.08
2023-02-16T00:37:44.592Z,11.94
2023-02-16T00:37:54.582Z,11.46
2023-02-16T00:38:04.581Z,10.70
2023-02-16T00:38:14.640Z,10.63
2023-02-16T00:38:24.605Z,10.82
2023-02-16T00:38:34.585Z,11.17
2023-02-16T00:38:44.646Z,11.45
2023-02-16T00:38:54.622Z,11.53
2023-02-16T00:39:04.633Z,11.59
2023-02-16T00:39:14.656Z,11.19
2023-02-16T00:39:24.667Z,11.07
2023-02-16T00:39:34.659Z,11.14
2023-02-16T00:39:44.690Z,10.87
2023-02-16T00:39:54.690Z,10.92
2023-02-16T00:40:04.691Z,11.40
2023-02-16T00:40:14.706Z,11.58
2023-02-16T00:40:24.690Z,11.75
2023-02-16T00:40:34.744Z,12.11
2023-02-16T00:40:44.760Z,12.07
2023-02-16T00:40:54.734Z,11.83
2023-02-16T00:41:04.992Z,11.99
2023-02-16T00:41:14.822Z,11.69
2023-02-16T00:41:24.805Z,11.15
2023-02-16T00:41:34.819Z,11.71
2023-02-16T00:41:44.804Z,11.40
2023-02-16T00:41:54.804Z,12.19
2023-02-16T00:42:04.844Z,11.85
2023-02-16T00:42:14.816Z,11.49
2023-02-16T00:42:24.801Z,11.40
2023-02-16T00:42:34.799Z,11.67
2023-02-16T00:42:44.795Z,11.86
2023-02-16T00:42:57.201Z,12.56
2023-02-16T00:43:04.812Z,12.39
2023-02-16T00:43:14.805Z,12.09
2023-02-16T00:43:24.799Z,11.70
2023-02-16T00:43:34.801Z,11.39
2023-02-16T00:43:44.801Z,11.03
2023-02-16T00:43:54.799Z,11.30
2023-02-16T00:44:04.798Z,11.04
2023-02-16T00:44:14.799Z,11.05
2023-02-16T00:44:24.800Z,10.90
2023-02-16T00:44:34.809Z,10.55
2023-02-16T00:44:44.808Z,10.41
2023-02-16T00:44:54.809Z,11.08
2023-02-16T00:45:04.799Z,11.38
2023-02-16T00:45:14.808Z,11.02
2023-02-16T00:45:24.813Z,11.24
2023-02-16T00:45:34.862Z,11.24
2023-02-16T00:45:44.795Z,11.40
2023-02-16T00:45:54.856Z,11.59
2023-02-16T00:46:04.812Z,12.32
2023-02-16T00:46:14.825Z,12.13
2023-02-16T00:46:24.828Z,11.85
2023-02-16T00:46:34.826Z,11.37
2023-02-16T00:46:44.768Z,11.69
2023-02-16T00:46:54.770Z,11.39
2023-02-16T00:47:04.771Z,10.92
2023-02-16T00:47:14.773Z,11.03
2023-02-16T00:47:24.778Z,11.59
2023-02-16T00:47:34.770Z,11.85
2023-02-16T00:47:44.772Z,12.76
2023-02-16T00:47:54.774Z,12.45
2023-02-16T00:48:04.797Z,12.39
2023-02-16T00:48:14.776Z,11.86
2023-02-16T00:48:24.802Z,12.08
2023-02-16T00:48:34.774Z,11.66
2023-02-16T00:48:45.333Z,11.78
2023-02-16T00:48:54.771Z,11.87
2023-02-16T00:49:04.788Z,11.39
2023-02-16T00:49:14.791Z,11.22
2023-02-16T00:49:24.774Z,12.54
2023-02-16T00:49:34.800Z,12.57
2023-02-16T00:49:44.784Z,12.08
2023-02-16T00:49:54.788Z,11.44
2023-02-16T00:50:04.784Z,11.08
2023-02-16T00:50:14.776Z,11.14
2023-02-16T00:50:24.795Z,11.33
2023-02-16T00:50:34.775Z,11.74
2023-02-16T00:50:44.855Z,11.78
2023-02-16T00:50:54.781Z,12.20
2023-02-16T00:51:16.821Z,12.38
2023-02-16T00:51:25.513Z,12.32
2023-02-16T00:51:26.403Z,11.87
2023-02-16T00:51:34.780Z,11.68
2023-02-16T00:51:44.789Z,11.40
2023-02-16T00:51:54.766Z,11.86
2023-02-16T00:52:04.759Z,12.25
2023-02-16T00:52:14.771Z,12.52
2023-02-16T00:52:24.760Z,12.54
2023-02-16T00:52:34.761Z,12.94
2023-02-16T00:52:44.761Z,12.78
2023-02-16T00:52:54.792Z,12.45
2023-02-16T00:53:04.777Z,12.25
2023-02-16T00:53:14.757Z,12.21
2023-02-16T00:53:24.766Z,12.52
2023-02-16T00:53:34.781Z,12.67
2023-02-16T00:53:44.765Z,12.84
2023-02-16T00:53:54.766Z,12.92
2023-02-16T00:54:04.765Z,13.28
2023-02-16T00:54:14.811Z,13.60
2023-02-16T00:54:24.763Z,13.44
2023-02-16T00:54:34.761Z,13.52
2023-02-16T00:54:44.749Z,13.79
2023-02-16T00:54:54.754Z,15.05
2023-02-16T00:55:04.776Z,15.45
2023-02-16T00:55:14.762Z,15.14
2023-02-16T00:55:24.758Z,14.83
2023-02-16T00:55:34.773Z,14.65
2023-02-16T00:55:44.771Z,14.89
2023-02-16T00:55:54.810Z,14.81
2023-02-16T00:56:04.776Z,14.67
2023-02-16T00:56:14.751Z,14.78
2023-02-16T00:56:24.773Z,14.68
2023-02-16T00:56:34.766Z,14.50
2023-02-16T00:56:44.757Z,14.39
2023-02-16T00:56:54.764Z,14.28
2023-02-16T00:57:04.764Z,14.00
2023-02-16T00:57:14.767Z,13.94
2023-02-16T00:57:24.751Z,14.17
2023-02-16T00:57:34.756Z,13.64
2023-02-16T00:57:44.752Z,13.59
2023-02-16T00:57:54.782Z,14.08
2023-02-16T00:58:04.750Z,14.57
2023-02-16T00:58:14.725Z,14.44
2023-02-16T00:58:24.755Z,14.38
2023-02-16T00:58:34.741Z,14.40
2023-02-16T00:58:44.779Z,14.36
2023-02-16T00:58:54.751Z,14.48
2023-02-16T00:59:04.751Z,14.23
2023-02-16T00:59:14.735Z,14.62
2023-02-16T00:59:24.739Z,14.44
2023-02-16T00:59:34.739Z,14.25
2023-02-16T00:59:44.733Z,13.81
2023-02-16T00:59:54.742Z,13.68
2023-02-16T01:00:04.734Z,14.29
2023-02-16T01:00:14.747Z,14.55
2023-02-16T01:00:24.747Z,14.28
2023-02-16T01:00:34.738Z,14.54
2023-02-16T01:00:44.738Z,14.54
2023-02-16T01:00:54.761Z,15.82
2023-02-16T01:01:05.103Z,15.79
2023-02-16T01:01:14.792Z,16.19
2023-02-16T01:01:24.784Z,15.69
2023-02-16T01:01:34.757Z,14.96
2023-02-16T01:01:44.793Z,14.86
2023-02-16T01:01:54.769Z,15.59
2023-02-16T01:02:04.765Z,15.75
2023-02-16T01:02:14.772Z,16.09
2023-02-16T01:02:24.726Z,16.04
2023-02-16T01:02:34.738Z,15.28
2023-02-16T01:02:44.744Z,14.69
2023-02-16T01:02:54.757Z,15.30
2023-02-16T01:03:04.717Z,14.40
2023-02-16T01:03:14.726Z,13.20
2023-02-16T01:03:24.740Z,14.04
2023-02-16T01:03:34.753Z,14.67
2023-02-16T01:03:44.736Z,14.04
2023-02-16T01:03:54.727Z,14.05
2023-02-16T01:04:04.745Z,15.03
2023-02-16T01:04:14.709Z,15.40
2023-02-16T01:04:24.767Z,15.63
2023-02-16T01:04:34.792Z,15.57
2023-02-16T01:04:44.778Z,16.07
2023-02-16T01:04:54.871Z,16.36
2023-02-16T01:05:04.722Z,16.29
2023-02-16T01:05:14.730Z,16.30
2023-02-16T01:05:24.728Z,15.70
2023-02-16T01:05:34.717Z,15.24
2023-02-16T01:05:44.733Z,16.21
2023-02-16T01:05:54.723Z,16.32
2023-02-16T01:06:04.736Z,15.93
2023-02-16T01:06:14.777Z,15.92
2023-02-16T01:06:24.759Z,15.21
2023-02-16T01:06:34.766Z,14.21
2023-02-16T01:06:44.765Z,14.26
2023-02-16T01:06:54.786Z,15.08
2023-02-16T01:07:04.778Z,16.11
2023-02-16T01:07:14.775Z,16.21
2023-02-16T01:07:24.796Z,15.56
2023-02-16T01:07:34.815Z,15.15
2023-02-16T01:07:44.800Z,15.15
2023-02-16T01:07:54.816Z,15.76
2023-02-16T01:08:04.819Z,16.01
2023-02-16T01:08:14.803Z,15.88
2023-02-16T01:08:24.872Z,15.04
2023-02-16T01:08:34.859Z,14.70
2023-02-16T01:08:44.868Z,14.17
2023-02-16T01:08:54.877Z,14.50
2023-02-16T01:09:04.887Z,14.63
2023-02-16T01:09:14.877Z,14.93
2023-02-16T01:09:24.907Z,15.04
2023-02-16T01:09:34.894Z,15.39
2023-02-16T01:09:44.900Z,15.20
2023-02-16T01:09:54.935Z,14.75
2023-02-16T01:10:04.957Z,14.32
2023-02-16T01:10:14.933Z,14.50
2023-02-16T01:10:24.956Z,15.04
2023-02-16T01:10:34.974Z,14.87
2023-02-16T01:10:44.949Z,14.51
2023-02-16T01:10:54.964Z,14.28
2023-02-16T01:11:05.297Z,13.94
2023-02-16T01:11:15.036Z,13.74
2023-02-16T01:11:24.978Z,13.07
2023-02-16T01:11:34.992Z,12.57
2023-02-16T01:11:44.967Z,12.15
2023-02-16T01:11:54.976Z,12.25
2023-02-16T01:12:04.973Z,12.72
2023-02-16T01:12:14.973Z,13.35
2023-02-16T01:12:24.971Z,13.38
2023-02-16T01:12:34.973Z,13.47
2023-02-16T01:12:44.971Z,12.99
2023-02-16T01:12:54.968Z,12.51
2023-02-16T01:13:04.993Z,12.44
2023-02-16T01:13:14.967Z,12.56
2023-02-16T01:13:24.966Z,12.62
2023-02-16T01:13:34.985Z,11.92
2023-02-16T01:13:44.983Z,12.04
2023-02-16T01:13:54.993Z,13.18
2023-02-16T01:14:04.974Z,12.96
2023-02-16T01:14:14.974Z,12.55
2023-02-16T01:14:24.970Z,12.22
2023-02-16T01:14:34.970Z,12.41
2023-02-16T01:14:44.960Z,12.66
2023-02-16T01:14:54.991Z,12.59
2023-02-16T01:15:04.963Z,12.55
2023-02-16T01:15:14.965Z,12.78
2023-02-16T01:15:24.967Z,13.64
2023-02-16T01:15:35.024Z,13.89
2023-02-16T01:15:44.969Z,13.97
2023-02-16T01:15:55.015Z,13.67
2023-02-16T01:16:05.081Z,13.49
2023-02-16T01:16:15.005Z,13.59
2023-02-16T01:16:25.049Z,12.95
2023-02-16T01:16:34.978Z,13.13
2023-02-16T01:16:44.979Z,12.69
2023-02-16T01:16:55.013Z,13.16
2023-02-16T01:17:05.024Z,14.12
2023-02-16T01:17:15.010Z,13.57
2023-02-16T01:17:25.052Z,13.49
2023-02-16T01:17:35.026Z,13.23
2023-02-16T01:17:45.038Z,13.12
2023-02-16T01:17:55.065Z,12.88
2023-02-16T01:18:05.058Z,12.82
2023-02-16T01:18:15.047Z,13.17
2023-02-16T01:18:25.096Z,13.16
2023-02-16T01:18:35.083Z,13.54
2023-02-16T01:18:45.077Z,13.74
2023-02-16T01:18:55.111Z,13.66
2023-02-16T01:19:05.138Z,13.64
2023-02-16T01:19:15.118Z,13.48
2023-02-16T01:19:25.132Z,13.16
2023-02-16T01:19:35.140Z,13.91
2023-02-16T01:19:45.147Z,14.03
2023-02-16T01:19:55.143Z,14.01
2023-02-16T01:20:05.147Z,14.45
2023-02-16T01:20:15.154Z,14.51
2023-02-16T01:20:25.183Z,14.78
2023-02-16T01:20:35.219Z,14.48
2023-02-16T01:20:45.177Z,14.43
2023-02-16T01:20:55.221Z,14.55
2023-02-16T01:21:05.436Z,14.27
2023-02-16T01:21:15.210Z,14.07
2023-02-16T01:21:25.255Z,13.91
2023-02-16T01:21:35.229Z,14.46
2023-02-16T01:21:45.227Z,13.70
2023-02-16T01:21:55.224Z,13.51
2023-02-16T01:22:05.228Z,13.52
2023-02-16T01:22:15.221Z,13.56
2023-02-16T01:22:25.220Z,13.82
2023-02-16T01:22:35.220Z,13.78
2023-02-16T01:22:45.215Z,13.95
2023-02-16T01:22:55.209Z,13.47
2023-02-16T01:23:05.241Z,13.41
2023-02-16T01:23:15.227Z,13.32
2023-02-16T01:23:25.224Z,13.03
2023-02-16T01:23:35.204Z,12.56
2023-02-16T01:23:45.206Z,12.75
2023-02-16T01:23:55.209Z,13.08
2023-02-16T01:24:05.205Z,13.18
2023-02-16T01:24:15.238Z,13.66
2023-02-16T01:24:25.205Z,13.32
2023-02-16T01:24:35.193Z,12.99
2023-02-16T01:24:45.197Z,13.21
2023-02-16T01:24:55.199Z,13.54
2023-02-16T01:25:05.201Z,13.84
2023-02-16T01:25:15.223Z,13.61
2023-02-16T01:25:25.204Z,13.91
2023-02-16T01:25:35.205Z,14.79
2023-02-16T01:25:45.198Z,14.47
2023-02-16T01:25:55.202Z,13.45
2023-02-16T01:26:05.220Z,12.90
2023-02-16T01:26:15.216Z,12.69
2023-02-16T01:26:25.189Z,13.54
2023-02-16T01:26:35.241Z,14.16
2023-02-16T01:26:45.204Z,14.50
2023-02-16T01:26:55.235Z,14.28
2023-02-16T01:27:05.228Z,14.01
2023-02-16T01:27:15.227Z,13.24
2023-02-16T01:27:25.255Z,13.02
2023-02-16T01:27:35.257Z,13.30
2023-02-16T01:27:45.265Z,13.48
2023-02-16T01:27:55.291Z,13.98
2023-02-16T01:28:05.264Z,13.55
2023-02-16T01:28:15.267Z,13.39
2023-02-16T01:28:25.317Z,13.59
2023-02-16T01:28:35.303Z,14.73
2023-02-16T01:28:45.302Z,15.46
2023-02-16T01:28:55.301Z,15.23
2023-02-16T01:29:05.343Z,14.14
2023-02-16T01:29:15.346Z,13.83
2023-02-16T01:29:25.358Z,14.33
2023-02-16T01:29:35.370Z,14.55
2023-02-16T01:29:45.372Z,15.02
2023-02-16T01:29:55.386Z,14.61
2023-02-16T01:30:05.417Z,15.02
2023-02-16T01:30:15.415Z,14.91
2023-02-16T01:30:25.455Z,14.75
2023-02-16T01:30:35.423Z,14.28
2023-02-16T01:30:45.400Z,14.32
2023-02-16T01:30:55.563Z,14.79
2023-02-16T01:31:05.769Z,14.79
2023-02-16T01:31:15.468Z,14.00
2023-02-16T01:31:25.525Z,13.85
2023-02-16T01:31:35.569Z,14.17
2023-02-16T01:31:45.526Z,14.66
2023-02-16T01:31:55.652Z,14.58
2023-02-16T01:32:05.776Z,14.24
2023-02-16T01:32:15.580Z,13.85
2023-02-16T01:32:25.570Z,13.92
2023-02-16T01:32:35.435Z,14.13
2023-02-16T01:32:45.416Z,14.18
2023-02-16T01:32:55.412Z,13.88
2023-02-16T01:33:05.412Z,14.25
2023-02-16T01:33:15.413Z,14.15
2023-02-16T01:33:25.411Z,14.50
2023-02-16T01:33:35.404Z,14.73
2023-02-16T01:33:45.427Z,14.73
2023-02-16T01:33:55.422Z,14.11
2023-02-16T01:34:05.425Z,13.56
2023-02-16T01:34:15.441Z,13.74
2023-02-16T01:34:25.451Z,14.65
2023-02-16T01:34:35.434Z,14.33
2023-02-16T01:34:45.424Z,14.30
2023-02-16T01:34:55.453Z,15.31
2023-02-16T01:35:05.439Z,15.34
2023-02-16T01:35:15.459Z,15.51
2023-02-16T01:35:25.468Z,14.92
2023-02-16T01:35:35.477Z,15.01
2023-02-16T01:35:45.476Z,14.98
2023-02-16T01:35:55.511Z,14.24
2023-02-16T01:36:05.515Z,14.51
2023-02-16T01:36:15.502Z,14.45
2023-02-16T01:36:25.533Z,14.44
2023-02-16T01:36:35.600Z,14.56
2023-02-16T01:36:45.553Z,14.48
2023-02-16T01:36:55.555Z,14.92
2023-02-16T01:37:05.552Z,13.93
2023-02-16T01:37:15.563Z,13.88
2023-02-16T01:37:25.571Z,14.26
2023-02-16T01:37:35.572Z,14.26
2023-02-16T01:37:45.565Z,14.89
2023-02-16T01:37:55.614Z,15.13
2023-02-16T01:38:05.608Z,15.28
2023-02-16T01:38:18.219Z,14.26
2023-02-16T01:38:25.591Z,14.19
2023-02-16T01:38:35.612Z,15.08
2023-02-16T01:38:45.589Z,15.39
2023-02-16T01:38:55.608Z,15.22
2023-02-16T01:39:05.611Z,14.73
2023-02-16T01:39:15.597Z,14.91
2023-02-16T01:39:25.576Z,14.83
2023-02-16T01:39:35.593Z,14.92
2023-02-16T01:39:45.591Z,14.49
2023-02-16T01:39:55.586Z,14.47
2023-02-16T01:40:05.616Z,14.16
2023-02-16T01:40:15.596Z,13.76
2023-02-16T01:40:25.597Z,13.97
2023-02-16T01:40:35.603Z,14.13
2023-02-16T01:40:45.598Z,14.31
2023-02-16T01:40:55.594Z,14.97
2023-02-16T01:41:05.802Z,15.16
2023-02-16T01:41:15.601Z,15.24
2023-02-16T01:41:25.615Z,15.24
2023-02-16T01:41:35.663Z,14.96
2023-02-16T01:41:45.592Z,15.44
2023-02-16T01:41:55.594Z,14.76
2023-02-16T01:42:05.605Z,14.51
2023-02-16T01:42:15.616Z,14.43
2023-02-16T01:42:25.588Z,14.30
2023-02-16T01:42:35.596Z,14.74
2023-02-16T01:42:45.604Z,14.77
2023-02-16T01:42:55.585Z,14.55
2023-02-16T01:43:05.573Z,13.98
2023-02-16T01:43:15.586Z,13.81
2023-02-16T01:43:25.588Z,14.24
2023-02-16T01:43:35.577Z,13.52
2023-02-16T01:43:45.569Z,14.00
2023-02-16T01:43:55.587Z,13.96
2023-02-16T01:44:05.574Z,13.74
2023-02-16T01:44:15.572Z,14.11
2023-02-16T01:44:25.579Z,14.75
2023-02-16T01:44:35.573Z,14.40
2023-02-16T01:44:45.575Z,14.08
2023-02-16T01:44:55.605Z,14.61
2023-02-16T01:45:25.951Z,7.81
2023-02-16T01:45:35.964Z,11.84
2023-02-16T01:45:45.955Z,14.20
2023-02-16T01:45:55.968Z,14.50
2023-02-16T01:46:06.024Z,15.09
2023-02-16T01:46:15.995Z,14.98
2023-02-16T01:46:26.042Z,15.22
2023-02-16T01:46:35.982Z,14.96
2023-02-16T01:46:46.007Z,14.52
2023-02-16T01:46:55.957Z,14.85
2023-02-16T01:47:05.950Z,14.65
2023-02-16T01:47:15.961Z,14.37
2023-02-16T01:47:25.968Z,14.16
2023-02-16T01:47:35.978Z,14.44
2023-02-16T01:47:45.942Z,14.29
2023-02-16T01:47:55.960Z,13.86
2023-02-16T01:48:05.944Z,13.75
2023-02-16T01:48:15.955Z,13.61
2023-02-16T01:48:25.952Z,14.50
2023-02-16T01:48:35.966Z,14.61
2023-02-16T01:48:45.972Z,14.59
2023-02-16T01:48:55.964Z,14.07
2023-02-16T01:49:05.955Z,14.12
2023-02-16T01:49:15.998Z,14.47
2023-02-16T01:49:25.966Z,13.53
2023-02-16T01:49:35.944Z,13.73
2023-02-16T01:49:45.953Z,13.50
2023-02-16T01:49:55.954Z,13.68
2023-02-16T01:50:05.939Z,13.50
2023-02-16T01:50:15.958Z,13.81
2023-02-16T01:50:25.929Z,14.05
2023-02-16T01:50:36.005Z,14.05
2023-02-16T01:50:45.952Z,14.93
2023-02-16T01:50:55.940Z,14.42
2023-02-16T01:51:05.946Z,14.38
2023-02-16T01:51:15.931Z,15.25
2023-02-16T01:51:25.960Z,14.95
2023-02-16T01:51:35.937Z,14.26
2023-02-16T01:51:45.932Z,13.77
2023-02-16T01:51:55.946Z,13.55
2023-02-16T01:52:05.938Z,13.71
2023-02-16T01:52:15.958Z,13.29
2023-02-16T01:52:25.957Z,13.20
2023-02-16T01:52:35.945Z,14.06
2023-02-16T01:52:45.930Z,14.07
2023-02-16T01:52:55.991Z,14.16
2023-02-16T01:53:05.937Z,13.75
2023-02-16T01:53:15.931Z,13.63
2023-02-16T01:53:25.940Z,13.54
2023-02-16T01:53:35.942Z,13.84
2023-02-16T01:53:45.941Z,14.34
2023-02-16T01:53:55.962Z,14.90
2023-02-16T01:54:05.947Z,15.04
2023-02-16T01:54:15.939Z,14.55
2023-02-16T01:54:25.939Z,15.05
2023-02-16T01:54:35.936Z,14.38
2023-02-16T01:54:45.950Z,13.55
2023-02-16T01:54:55.936Z,13.62
2023-02-16T01:55:05.948Z,13.94
2023-02-16T01:55:15.932Z,14.14
2023-02-16T01:55:25.973Z,13.92
2023-02-16T01:55:35.955Z,13.65
2023-02-16T01:55:45.938Z,13.81
2023-02-16T01:55:55.945Z,14.10
2023-02-16T01:56:05.944Z,13.95
2023-02-16T01:56:15.936Z,14.20
2023-02-16T01:56:25.929Z,14.49
2023-02-16T01:56:35.949Z,14.02
2023-02-16T01:56:45.940Z,14.11
2023-02-16T01:56:55.912Z,14.02
2023-02-16T01:57:05.936Z,14.05
2023-02-16T01:57:15.902Z,14.10
2023-02-16T01:57:25.941Z,13.54
2023-02-16T01:57:35.951Z,13.53
2023-02-16T01:57:45.933Z,13.54
2023-02-16T01:57:56.094Z,13.10
2023-02-16T01:58:06.054Z,13.15
2023-02-16T01:58:16.028Z,13.58
2023-02-16T01:58:26.029Z,13.61
2023-02-16T01:58:36.045Z,13.56
2023-02-16T01:58:46.070Z,13.13
2023-02-16T01:58:56.063Z,13.49
2023-02-16T01:59:06.037Z,13.86
2023-02-16T01:59:16.032Z,13.92
2023-02-16T01:59:26.030Z,13.29
2023-02-16T01:59:36.032Z,13.02
2023-02-16T01:59:46.055Z,13.55
2023-02-16T01:59:56.061Z,13.59
2023-02-16T02:00:06.044Z,13.79
2023-02-16T02:00:16.065Z,14.17
2023-02-16T02:00:26.078Z,13.95
2023-02-16T02:00:36.088Z,13.66
2023-02-16T02:00:46.089Z,13.16
2023-02-16T02:00:56.109Z,12.86
2023-02-16T02:01:06.290Z,12.76
2023-02-16T02:01:16.095Z,12.83
2023-02-16T02:01:26.178Z,12.84
2023-02-16T02:01:36.192Z,13.19
2023-02-16T02:01:46.192Z,13.85
2023-02-16T02:01:56.206Z,13.89
2023-02-16T02:02:06.157Z,13.72
2023-02-16T02:02:16.151Z,14.15
2023-02-16T02:02:26.278Z,14.24
2023-02-16T02:02:36.274Z,14.35
2023-02-16T02:02:46.213Z,14.84
2023-02-16T02:02:56.285Z,14.40
2023-02-16T02:03:06.291Z,13.85
2023-02-16T02:03:16.210Z,13.57
2023-02-16T02:03:26.248Z,13.59
2023-02-16T02:03:36.251Z,13.27
2023-02-16T02:03:46.259Z,13.44
2023-02-16T02:03:56.254Z,13.83
2023-02-16T02:04:06.255Z,13.41
2023-02-16T02:04:16.270Z,13.63
2023-02-16T02:04:26.285Z,13.76
2023-02-16T02:04:36.273Z,14.01
2023-02-16T02:04:46.291Z,13.81
2023-02-16T02:04:56.332Z,13.61
2023-02-16T02:05:06.322Z,12.82
2023-02-16T02:05:16.290Z,12.64
2023-02-16T02:05:26.329Z,13.05
2023-02-16T02:05:36.334Z,14.20
2023-02-16T02:05:46.323Z,14.69
2023-02-16T02:05:56.353Z,14.75
2023-02-16T02:06:06.360Z,14.72
2023-02-16T02:06:16.379Z,15.13
2023-02-16T02:06:26.379Z,15.39
2023-02-16T02:06:36.380Z,15.13
2023-02-16T02:06:46.392Z,14.78
2023-02-16T02:06:56.402Z,14.13
2023-02-16T02:07:06.427Z,13.97
2023-02-16T02:07:16.393Z,14.43
2023-02-16T02:07:26.429Z,14.22
2023-02-16T02:07:36.439Z,13.87
2023-02-16T02:07:46.437Z,12.95
2023-02-16T02:07:56.532Z,13.17
2023-02-16T02:08:06.473Z,13.07
2023-02-16T02:08:16.458Z,13.00
2023-02-16T02:08:26.477Z,13.22
2023-02-16T02:08:36.489Z,13.24
2023-02-16T02:08:46.476Z,13.39
2023-02-16T02:08:56.504Z,13.45
2023-02-16T02:09:06.521Z,13.77